createdAt,value
2018-09-19T10:27:08.014Z,70.025635
2018-09-19T10:30:00.261Z,69.158936
2018-09-19T10:32:00.231Z,66.363525
2018-09-19T10:33:00.325Z,66.96167
2018-09-19T10:34:00.371Z,67.260742
2018-09-19T10:35:00.479Z,67.895508
2018-09-19T10:36:00.519Z,68.395996
2018-09-19T10:37:00.674Z,67.993164
2018-09-19T10:38:00.698Z,68.096924
2018-09-19T10:39:00.762Z,67.993164
2018-09-19T10:40:00.949Z,68.096924
2018-09-19T10:41:00.962Z,68.096924
2018-09-19T10:42:01.032Z,68.493652
2018-09-19T10:43:01.126Z,68.292236
2018-09-19T10:44:01.336Z,68.19458
2018-09-19T10:45:02.207Z,68.658447
2018-09-19T10:46:01.271Z,68.060303
2018-09-19T10:47:01.428Z,67.76123
2018-09-19T10:48:01.275Z,67.663574
2018-09-19T10:49:01.542Z,67.663574
2018-09-19T10:50:01.313Z,67.492676
2018-09-19T10:51:01.338Z,67.663574
2018-09-19T10:52:01.326Z,67.962646
2018-09-19T10:53:01.407Z,67.962646
2018-09-19T10:54:01.487Z,68.060303
2018-09-19T10:55:01.451Z,67.565918
2018-09-19T10:56:01.538Z,67.462158
2018-09-19T10:57:01.704Z,67.364502
2018-09-19T10:58:01.631Z,68.261719
2018-09-19T10:59:01.826Z,67.86499
2018-09-19T11:00:01.990Z,66.931152
2018-09-19T11:01:01.902Z,67.333984
2018-09-19T11:02:01.897Z,67.730713
2018-09-19T11:03:02.060Z,67.132568
2018-09-19T11:04:02.250Z,67.230225
2018-09-19T11:05:02.262Z,67.132568
2018-09-19T11:06:02.308Z,67.364502
2018-09-19T11:07:02.316Z,67.962646
2018-09-19T11:08:02.303Z,68.127441
2018-09-19T11:09:02.365Z,67.230225
2018-09-19T11:10:02.396Z,67.529297
2018-09-19T11:11:02.444Z,67.529297
2018-09-19T11:12:02.467Z,67.633057
2018-09-19T11:13:02.530Z,67.633057
2018-09-19T11:14:02.548Z,67.633057
2018-09-19T11:15:02.569Z,67.529297
2018-09-19T11:16:02.681Z,67.932129
2018-09-19T11:17:02.691Z,67.034912
2018-09-19T11:18:02.688Z,66.802979
2018-09-19T11:19:02.696Z,67.498779
2018-09-19T11:20:02.884Z,67.596436
2018-09-19T11:21:03.078Z,67.297363
2018-09-19T11:22:02.919Z,66.601562
2018-09-19T11:23:03.069Z,66.467285
2018-09-19T11:24:03.074Z,66.571045
2018-09-19T11:25:03.335Z,66.271973
2018-09-19T11:26:03.310Z,66.668701
2018-09-19T11:27:03.373Z,66.967773
2018-09-19T11:28:03.505Z,65.570068
2018-09-19T11:29:03.712Z,65.570068
2018-09-19T11:30:03.706Z,65.9729
2018-09-19T11:31:03.726Z,66.070557
2018-09-19T11:32:03.825Z,65.17334
2018-09-19T11:33:03.903Z,65.539551
2018-09-19T11:34:03.958Z,65.142822
2018-09-19T11:35:04.009Z,64.477539
2018-09-19T11:36:04.221Z,64.373779
2018-09-19T11:37:05.055Z,64.074707
2018-09-19T11:38:04.090Z,64.84375
2018-09-19T11:39:04.109Z,65.240479
2018-09-19T11:40:04.093Z,64.746094
2018-09-19T11:41:04.298Z,63.647461
2018-09-19T11:42:04.395Z,64.941406
2018-09-19T11:43:04.435Z,65.606689
2018-09-19T11:44:04.480Z,65.441895
2018-09-19T11:45:04.692Z,66.339111
2018-09-19T11:46:04.789Z,66.40625
2018-09-19T11:47:05.167Z,65.808105
2018-09-19T11:48:04.876Z,64.385986
2018-09-19T11:49:05.124Z,65.112305
2018-09-19T11:50:05.080Z,65.179443
2018-09-19T11:51:05.131Z,65.081787
2018-09-19T11:52:05.258Z,65.808105
2018-09-19T11:53:05.374Z,66.107178
2018-09-19T11:54:05.337Z,66.009521
2018-09-19T11:55:05.333Z,65.808105
2018-09-19T11:56:05.577Z,65.380859
2018-09-19T11:57:05.589Z,65.710449
2018-09-19T11:58:05.670Z,65.777588
2018-09-19T11:59:05.715Z,65.979004
2018-09-19T12:00:05.839Z,65.905762
2018-09-19T12:01:05.803Z,66.107178
2018-09-19T12:02:06.011Z,64.782715
2018-09-19T12:03:06.005Z,65.777588
2018-09-19T12:04:06.123Z,65.081787
2018-09-19T12:05:06.219Z,66.07666
2018-09-19T12:06:06.229Z,66.271973
2018-09-19T12:07:06.242Z,66.07666
2018-09-19T12:08:06.396Z,65.979004
2018-09-19T12:09:06.346Z,66.375732
2018-09-19T12:10:06.482Z,66.442871
2018-09-19T12:11:06.588Z,66.442871
2018-09-19T12:12:06.578Z,66.772461
2018-09-19T12:13:06.740Z,66.772461
2018-09-19T12:14:06.768Z,67.169189
2018-09-19T12:15:06.780Z,67.266846
2018-09-19T12:16:06.790Z,66.870117
2018-09-19T12:17:06.801Z,67.041016
2018-09-19T12:18:06.947Z,66.345215
2018-09-19T12:19:06.978Z,66.143799
2018-09-19T12:20:06.991Z,66.241455
2018-09-19T12:21:07.039Z,66.046143
2018-09-19T12:22:07.137Z,66.07666
2018-09-19T12:23:07.164Z,66.375732
2018-09-19T12:24:07.179Z,65.875244
2018-09-19T12:25:07.212Z,66.143799
2018-09-19T12:26:08.285Z,66.046143
2018-09-19T12:27:07.375Z,65.2771
2018-09-19T12:28:07.532Z,66.174316
2018-09-19T12:29:07.463Z,66.271973
2018-09-19T12:30:07.511Z,66.870117
2018-09-19T12:31:07.657Z,65.148926
2018-09-19T12:32:07.732Z,65.05127
2018-09-19T12:33:08.018Z,65.350342
2018-09-19T12:34:07.883Z,65.74707
2018-09-19T12:35:07.835Z,64.94751
2018-09-19T12:36:07.841Z,64.94751
2018-09-19T12:37:07.839Z,64.72168
2018-09-19T12:38:07.875Z,64.422607
2018-09-19T12:39:08.022Z,64.324951
2018-09-19T12:40:08.132Z,63.922119
2018-09-19T12:41:08.175Z,64.123535
2018-09-19T12:42:08.180Z,64.422607
2018-09-19T12:43:08.346Z,64.093018
2018-09-19T12:44:08.409Z,64.221191
2018-09-19T12:45:08.507Z,63.824463
2018-09-19T12:46:08.444Z,63.525391
2018-09-19T12:47:08.519Z,63.696289
2018-09-19T12:48:08.546Z,63.696289
2018-09-19T12:49:08.723Z,64.190674
2018-09-19T12:50:08.718Z,63.494873
2018-09-19T12:51:08.767Z,63.598633
2018-09-19T12:52:08.852Z,63.494873
2018-09-19T12:53:08.898Z,63.000488
2018-09-19T12:54:09.024Z,63.000488
2018-09-19T12:55:09.110Z,62.902832
2018-09-19T12:56:09.190Z,63.397217
2018-09-19T12:57:09.203Z,64.025879
2018-09-19T12:58:09.159Z,63.793945
2018-09-19T12:59:09.312Z,62.902832
2018-09-19T13:00:09.230Z,63.299561
2018-09-19T13:01:09.217Z,60.48584
2018-09-19T13:02:09.297Z,60.388184
2018-09-19T13:03:09.284Z,58.898926
2018-09-19T13:04:09.500Z,58.69751
2018-09-19T13:05:09.578Z,58.47168
2018-09-19T13:06:09.642Z,55.69458
2018-09-19T13:07:09.695Z,53.405762
2018-09-19T13:08:09.699Z,56.188965
2018-09-19T13:09:09.796Z,55.792236
2018-09-19T13:10:09.973Z,55.59082
2018-09-19T13:11:10.011Z,57.183838
2018-09-19T13:12:10.075Z,54.699707
2018-09-19T13:13:10.166Z,52.392578
2018-09-19T13:14:10.255Z,52.886963
2018-09-19T13:15:10.288Z,53.283691
2018-09-19T13:16:10.311Z,54.077148
2018-09-19T13:17:10.413Z,54.748535
2018-09-19T13:18:10.510Z,55.041504
2018-09-19T13:19:10.531Z,54.943848
2018-09-19T13:20:11.215Z,54.052734
2018-09-19T13:21:10.718Z,56.335449
2018-09-19T13:22:10.665Z,57.128906
2018-09-19T13:23:10.722Z,56.70166
2018-09-19T13:24:10.834Z,56.005859
2018-09-19T13:25:11.100Z,54.125977
2018-09-19T13:26:10.960Z,54.919434
2018-09-19T13:27:11.138Z,54.022217
2018-09-19T13:28:11.136Z,54.919434
2018-09-19T13:29:11.175Z,54.296875
2018-09-19T13:30:11.392Z,53.204346
2018-09-19T13:31:11.387Z,53.277588
2018-09-19T13:32:11.388Z,53.082275
2018-09-19T13:33:11.518Z,53.277588
2018-09-19T13:34:11.475Z,52.984619
2018-09-19T13:35:11.427Z,52.783203
2018-09-19T13:36:11.563Z,52.984619
2018-09-19T13:37:11.581Z,52.758789
2018-09-19T13:38:11.703Z,51.843262
2018-09-19T13:39:11.763Z,51.226807
2018-09-19T13:40:11.830Z,49.816895
2018-09-19T13:41:12.049Z,48.657227
2018-09-19T13:42:12.131Z,46.398926
2018-09-19T13:43:12.215Z,44.714355
2018-09-19T13:44:12.394Z,41.467285
2018-09-19T13:45:12.478Z,39.215088
2018-09-19T13:46:12.364Z,36.529541
2018-09-19T13:47:12.371Z,34.204102
2018-09-19T13:48:12.475Z,32.470703
2018-09-19T13:49:12.677Z,31.219482
2018-09-19T13:50:12.517Z,30.206299
2018-09-19T13:51:12.572Z,28.643799
2018-09-19T13:52:12.738Z,28.717041
2018-09-19T13:53:12.673Z,27.819824
2018-09-19T13:54:12.783Z,27.984619
2018-09-19T13:55:12.798Z,27.105713
2018-09-19T13:56:12.955Z,26.983643
2018-09-19T13:57:13.003Z,26.202393
2018-09-19T13:58:13.086Z,25.421143
2018-09-19T13:59:13.178Z,25.43335
2018-09-19T14:00:14.234Z,25.518799
2018-09-19T14:01:13.284Z,25.994873
2018-09-19T14:02:13.574Z,25.286865
2018-09-19T14:03:13.431Z,24.890137
2018-09-19T14:04:13.528Z,24.890137
2018-09-19T14:05:13.646Z,25.213623
2018-09-19T14:06:13.581Z,24.798584
2018-09-19T14:07:13.829Z,25.286865
2018-09-19T14:08:13.659Z,25.109863
2018-09-19T14:09:13.759Z,25.286865
2018-09-19T14:10:13.952Z,24.499512
2018-09-19T14:11:14.046Z,24.102783
2018-09-19T14:12:14.264Z,24.194336
2018-09-19T14:13:14.270Z,24.511719
2018-09-19T14:14:14.264Z,24.676514
2018-09-19T14:15:14.383Z,25.097656
2018-09-19T14:16:14.379Z,26.245117
2018-09-19T14:17:14.469Z,25.848389
2018-09-19T14:18:14.528Z,24.77417
2018-09-19T14:19:14.702Z,24.853516
2018-09-19T14:20:14.665Z,24.353027
2018-09-19T14:21:14.696Z,23.956299
2018-09-19T14:22:14.858Z,24.591064
2018-09-19T14:23:14.812Z,24.987793
2018-09-19T14:24:14.954Z,25.274658
2018-09-19T14:25:15.053Z,24.511719
2018-09-19T14:26:15.102Z,25.408936
2018-09-19T14:27:15.184Z,25.012207
2018-09-19T14:28:15.376Z,24.914551
2018-09-19T14:29:15.367Z,24.822998
2018-09-19T14:30:15.480Z,24.987793
2018-09-19T14:31:15.481Z,24.11499
2018-09-19T14:32:15.654Z,24.401855
2018-09-19T14:33:15.639Z,24.810791
2018-09-19T14:34:15.777Z,24.725342
2018-09-19T14:35:15.876Z,25.720215
2018-09-19T14:36:15.933Z,26.2146
2018-09-19T14:37:15.986Z,26.202393
2018-09-19T14:38:16.003Z,26.269531
2018-09-19T14:39:16.020Z,26.641846
2018-09-19T14:40:16.076Z,26.531982
2018-09-19T14:41:16.171Z,26.043701
2018-09-19T14:42:16.358Z,25.427246
2018-09-19T14:43:16.291Z,25.921631
2018-09-19T14:44:16.628Z,25.921631
2018-09-19T14:46:13.141Z,25.10376
2018-09-19T14:47:13.537Z,25.500488
2018-09-19T14:49:10.165Z,28.326416
2018-09-19T14:50:10.279Z,29.02832
2018-09-19T14:51:49.657Z,27.545166
2018-09-19T14:53:47.621Z,28.271484
2018-09-19T15:14:26.191Z,30.963135
2018-09-19T15:15:26.312Z,30.560303
2018-09-19T15:22:10.075Z,30.255127
2018-09-19T15:23:10.475Z,30.065918
2018-09-19T15:24:10.221Z,30.767822
2018-09-19T15:25:10.299Z,30.883789
2018-09-19T15:26:10.609Z,30.975342
2018-09-19T15:27:10.323Z,30.352783
2018-09-19T15:28:10.413Z,29.553223
2018-09-19T15:29:10.551Z,30.065918
2018-09-19T15:30:10.766Z,29.553223
2018-09-19T15:31:10.704Z,30.383301
2018-09-19T15:32:10.835Z,30.963135
2018-09-19T15:33:10.779Z,30.511475
2018-09-19T15:34:10.788Z,30.651855
2018-09-19T15:35:10.767Z,31.713867
2018-09-19T15:36:10.926Z,30.914307
2018-09-19T15:37:11.056Z,31.652832
2018-09-19T15:38:11.061Z,32.8125
2018-09-19T15:39:11.163Z,35.72998
2018-09-19T15:40:11.327Z,39.117432
2018-09-19T15:41:11.519Z,42.785645
2018-09-19T15:42:11.402Z,45.129395
2018-09-19T15:43:11.487Z,46.472168
2018-09-19T15:44:11.572Z,47.283936
2018-09-19T15:45:11.532Z,48.31543
2018-09-19T15:46:11.599Z,48.413086
2018-09-19T15:47:11.668Z,48.4375
2018-09-19T15:48:11.675Z,49.151611
2018-09-19T15:49:11.760Z,48.754883
2018-09-19T15:50:11.869Z,48.284912
2018-09-19T15:51:12.053Z,47.967529
2018-09-19T15:52:12.085Z,48.065186
2018-09-19T15:53:12.127Z,48.364258
2018-09-19T15:54:12.155Z,47.674561
2018-09-19T15:56:52.967Z,47.991943
2018-09-19T15:59:23.717Z,50.012207
2018-09-19T16:00:23.691Z,50.756836
2018-09-19T16:01:23.864Z,50.830078
2018-09-19T16:02:23.795Z,50.634766
2018-09-19T16:03:23.808Z,50.408936
2018-09-19T16:04:23.885Z,50.408936
2018-09-19T16:05:24.129Z,50.830078
2018-09-19T16:06:24.127Z,50.732422
2018-09-19T16:07:24.310Z,50.732422
2018-09-19T16:08:24.384Z,50.732422
2018-09-19T16:09:24.582Z,50.634766
2018-09-19T16:10:24.502Z,50.335693
2018-09-19T16:11:24.565Z,50.756836
2018-09-19T16:12:24.716Z,50.830078
2018-09-19T16:13:24.714Z,50.732422
2018-09-19T16:14:24.765Z,50.531006
2018-09-19T16:15:25.841Z,50.531006
2018-09-19T16:16:24.891Z,50.732422
2018-09-19T16:17:25.061Z,51.12915
2018-09-19T16:18:25.211Z,50.952148
2018-09-19T16:25:46.250Z,52.587891
2018-09-19T16:26:46.403Z,52.984619
2018-09-19T16:27:46.302Z,52.984619
2018-09-19T16:28:46.404Z,53.179932
2018-09-19T16:29:46.508Z,53.479004
2018-09-19T16:30:46.562Z,53.082275
2018-09-19T16:31:46.649Z,52.984619
2018-09-19T16:32:46.729Z,52.984619
2018-09-19T16:33:46.857Z,51.794434
2018-09-19T16:34:46.860Z,52.514648
2018-09-19T16:35:46.863Z,52.11792
2018-09-19T16:36:46.925Z,52.313232
2018-09-19T16:37:48.076Z,52.11792
2018-09-19T16:38:47.877Z,52.044678
2018-09-19T16:41:02.432Z,52.11792
2018-09-19T16:41:44.658Z,52.044678
2018-09-19T16:42:44.797Z,51.843262
2018-09-19T16:43:44.868Z,51.940918
2018-09-19T16:44:44.986Z,51.843262
2018-09-19T16:45:45.352Z,51.940918
2018-09-19T16:48:25.827Z,52.142334
2018-09-19T16:50:22.266Z,52.764893
2018-09-19T16:52:19.163Z,52.563477
2018-09-19T17:20:54.598Z,54.205322
2018-09-19T17:21:36.765Z,54.602051
2018-09-19T17:22:37.039Z,54.602051
2018-09-19T17:23:37.036Z,54.724121
2018-09-19T17:24:37.153Z,55.291748
2018-09-19T17:25:37.328Z,55.517578
2018-09-19T17:26:37.318Z,55.718994
2018-09-19T17:27:37.404Z,56.018066
2018-09-19T17:28:37.484Z,55.914307
2018-09-19T17:29:37.662Z,55.517578
2018-09-19T17:30:37.734Z,55.718994
2018-09-19T17:31:37.812Z,55.914307
2018-09-19T17:32:37.946Z,56.018066
2018-09-19T17:33:37.992Z,55.914307
2018-09-19T17:34:38.019Z,56.140137
2018-09-19T17:35:38.140Z,56.341553
2018-09-19T17:36:38.213Z,56.542969
2018-09-19T17:37:38.460Z,56.640625
2018-09-19T17:38:38.463Z,56.542969
2018-09-19T17:39:38.508Z,56.439209
2018-09-19T17:40:38.540Z,56.243896
2018-09-19T17:41:38.799Z,56.542969
2018-09-19T17:42:38.826Z,56.439209
2018-09-19T17:43:38.873Z,56.542969
2018-09-19T17:44:39.030Z,56.835938
2018-09-19T17:45:39.266Z,56.835938
2018-09-19T17:46:39.184Z,56.866455
2018-09-19T17:47:39.249Z,57.263184
2018-09-19T17:48:39.423Z,57.165527
2018-09-19T17:49:39.484Z,57.263184
2018-09-19T17:50:39.538Z,57.36084
2018-09-19T17:51:39.693Z,57.69043
2018-09-19T17:52:39.659Z,57.58667
2018-09-19T17:53:39.695Z,57.69043
2018-09-19T17:54:39.685Z,57.489014
2018-09-19T17:55:39.823Z,57.58667
2018-09-19T17:56:39.913Z,57.263184
2018-09-19T17:57:39.869Z,57.061768
2018-09-19T17:58:39.907Z,57.293701
2018-09-19T17:59:40.019Z,57.165527
2018-09-19T18:00:40.053Z,57.293701
2018-09-19T18:01:40.096Z,56.994629
2018-09-19T18:02:40.128Z,57.092285
2018-09-19T18:03:40.345Z,57.092285
2018-09-19T18:04:40.295Z,57.189941
2018-09-19T18:05:41.592Z,57.189941
2018-09-19T18:06:40.449Z,57.519531
2018-09-19T18:07:40.679Z,57.617188
2018-09-19T18:08:40.688Z,57.617188
2018-09-19T18:09:40.702Z,57.714844
2018-09-19T18:10:40.819Z,57.818604
2018-09-19T18:11:40.856Z,57.714844
2018-09-19T18:12:40.921Z,57.489014
2018-09-19T18:13:41.002Z,57.714844
2018-09-19T18:14:41.099Z,57.714844
2018-09-19T18:15:41.125Z,57.519531
2018-09-19T18:16:41.159Z,57.818604
2018-09-19T18:17:41.233Z,57.818604
2018-09-19T18:18:41.378Z,58.013916
2018-09-19T18:19:41.435Z,58.111572
2018-09-19T18:20:41.480Z,58.441162
2018-09-19T18:21:41.575Z,58.441162
2018-09-19T18:22:41.612Z,58.642578
2018-09-19T18:23:41.756Z,58.642578
2018-09-19T18:24:41.872Z,58.642578
2018-09-19T18:25:41.887Z,58.642578
2018-09-19T18:26:41.999Z,58.538818
2018-09-19T18:27:42.053Z,58.441162
2018-09-19T18:28:42.201Z,58.239746
2018-09-19T18:29:42.333Z,58.111572
2018-09-19T18:30:42.433Z,58.215332
2018-09-19T18:31:42.565Z,58.343506
2018-09-19T18:32:42.657Z,58.14209
2018-09-19T18:33:42.649Z,58.044434
2018-09-19T18:35:39.347Z,58.044434
2018-09-19T18:36:39.470Z,58.14209
2018-09-19T19:03:57.965Z,58.69751
2018-09-19T19:04:57.908Z,58.795166
2018-09-19T19:05:58.081Z,58.795166
2018-09-19T19:06:58.000Z,58.795166
2018-09-19T19:07:58.046Z,58.795166
2018-09-19T19:08:58.049Z,58.92334
2018-09-19T19:09:58.137Z,58.892822
2018-09-19T19:10:58.307Z,58.892822
2018-09-19T19:11:58.267Z,58.795166
2018-09-19T19:12:58.295Z,58.996582
2018-09-19T19:13:58.404Z,58.795166
2018-09-19T19:14:58.535Z,58.69751
2018-09-19T19:15:58.494Z,58.59375
2018-09-19T19:16:58.645Z,58.69751
2018-09-19T19:17:58.622Z,59.094238
2018-09-19T19:18:58.723Z,59.295654
2018-09-19T19:19:58.715Z,59.423828
2018-09-19T19:20:58.848Z,59.521484
2018-09-19T19:21:59.083Z,59.521484
2018-09-19T19:22:59.131Z,59.521484
2018-09-19T19:23:59.069Z,59.521484
2018-09-19T19:24:59.427Z,59.619141
2018-09-19T19:25:59.380Z,59.820557
2018-09-19T19:26:59.328Z,59.918213
2018-09-19T19:27:59.495Z,59.918213
2018-09-19T19:28:59.498Z,60.021973
2018-09-19T19:29:59.704Z,59.918213
2018-09-19T19:30:59.672Z,60.021973
2018-09-19T19:31:59.796Z,59.918213
2018-09-19T19:32:59.833Z,59.918213
2018-09-19T19:33:59.937Z,59.918213
2018-09-19T19:35:00.019Z,59.820557
2018-09-19T19:36:00.068Z,59.820557
2018-09-19T19:37:00.116Z,59.7229
2018-09-19T19:38:00.159Z,59.7229
2018-09-19T19:39:00.263Z,59.851074
2018-09-19T19:40:00.292Z,60.247803
2018-09-19T19:41:00.350Z,60.479736
2018-09-19T19:42:00.408Z,60.345459
2018-09-19T19:43:00.675Z,60.375977
2018-09-19T19:44:00.640Z,60.479736
2018-09-19T19:45:00.760Z,60.247803
2018-09-19T19:46:00.838Z,60.449219
2018-09-19T19:47:00.951Z,60.150146
2018-09-19T19:48:01.071Z,60.375977
2018-09-19T19:49:01.105Z,60.577393
2018-09-19T19:50:01.284Z,60.27832
2018-09-19T19:51:01.253Z,60.375977
2018-09-19T19:52:01.403Z,60.675049
2018-09-19T19:53:01.603Z,60.778809
2018-09-19T19:54:01.683Z,60.675049
2018-09-19T19:55:01.542Z,60.675049
2018-09-19T19:56:01.592Z,60.876465
2018-09-19T19:57:01.728Z,61.004639
2018-09-19T19:58:02.033Z,61.206055
2018-09-19T19:59:01.904Z,60.876465
2018-09-19T20:00:01.953Z,60.974121
2018-09-19T20:01:02.302Z,60.974121
2018-09-19T20:02:02.154Z,60.778809
2018-09-19T20:03:02.268Z,60.876465
2018-09-19T20:04:02.402Z,60.876465
2018-09-19T20:05:02.486Z,60.876465
2018-09-19T20:06:02.647Z,60.778809
2018-09-19T20:07:02.786Z,60.876465
2018-09-19T20:08:02.917Z,60.876465
2018-09-19T20:09:02.966Z,60.876465
2018-09-19T20:10:02.925Z,60.778809
2018-09-19T20:11:02.959Z,60.577393
2018-09-19T20:12:03.106Z,60.375977
2018-09-19T20:13:03.300Z,60.247803
2018-09-19T20:14:03.201Z,60.375977
2018-09-19T20:15:03.312Z,60.675049
2018-09-19T20:16:03.332Z,60.906982
2018-09-19T20:17:03.594Z,61.004639
2018-09-19T20:18:03.531Z,61.303711
2018-09-19T20:19:03.574Z,61.206055
2018-09-19T20:20:03.712Z,61.407471
2018-09-19T20:21:03.717Z,61.505127
2018-09-19T20:22:03.822Z,61.407471
2018-09-19T20:23:03.932Z,61.602783
2018-09-19T20:24:04.026Z,61.407471
2018-09-19T20:25:04.054Z,61.102295
2018-09-19T20:26:04.372Z,61.206055
2018-09-19T20:27:04.205Z,61.206055
2018-09-19T20:28:04.329Z,61.206055
2018-09-19T20:29:04.365Z,61.004639
2018-09-19T20:30:04.555Z,61.431885
2018-09-19T20:31:04.515Z,61.633301
2018-09-19T20:32:04.591Z,61.633301
2018-09-19T20:33:04.637Z,61.505127
2018-09-19T20:34:04.772Z,61.834717
2018-09-19T20:35:04.887Z,62.133789
2018-09-19T20:36:05.020Z,62.133789
2018-09-19T20:37:05.093Z,62.335205
2018-09-19T20:38:05.131Z,62.530518
2018-09-19T20:39:05.245Z,62.634277
2018-09-19T20:40:05.263Z,62.634277
2018-09-19T20:41:05.511Z,62.82959
2018-09-19T20:42:05.457Z,63.134766
2018-09-19T20:43:05.466Z,63.360596
2018-09-19T20:44:05.607Z,63.232422
2018-09-19T20:45:05.629Z,63.232422
2018-09-19T20:46:05.758Z,63.031006
2018-09-19T20:47:05.755Z,62.93335
2018-09-19T20:48:05.971Z,63.031006
2018-09-19T20:49:05.924Z,63.031006
2018-09-19T20:50:06.067Z,63.134766
2018-09-19T20:51:06.115Z,63.134766
2018-09-19T20:52:06.234Z,62.805176
2018-09-19T20:53:06.329Z,62.93335
2018-09-19T20:54:06.364Z,62.902832
2018-09-19T20:55:06.497Z,62.701416
2018-09-19T20:56:06.656Z,62.93335
2018-09-19T20:57:06.660Z,63.134766
2018-09-19T20:58:06.713Z,63.232422
2018-09-19T20:59:06.807Z,63.232422
2018-09-19T21:00:06.989Z,63.134766
2018-09-19T21:01:06.882Z,63.104248
2018-09-19T21:02:06.961Z,62.902832
2018-09-19T21:03:07.080Z,63.000488
2018-09-19T21:04:07.137Z,63.232422
2018-09-19T21:05:07.346Z,63.330078
2018-09-19T21:06:07.343Z,63.232422
2018-09-19T21:07:07.518Z,63.000488
2018-09-19T21:08:07.568Z,63.433838
2018-09-19T21:09:07.733Z,63.62915
2018-09-19T21:11:07.805Z,63.763428
2018-09-19T21:12:07.888Z,63.232422
2018-09-19T21:13:08.002Z,63.031006
2018-09-19T21:14:08.135Z,62.82959
2018-09-19T21:15:08.220Z,63.031006
2018-09-19T21:16:08.387Z,62.634277
2018-09-19T21:17:08.537Z,62.963867
2018-09-19T21:18:08.458Z,63.165283
2018-09-19T21:19:08.550Z,63.262939
2018-09-19T21:20:08.626Z,63.262939
2018-09-19T21:21:08.869Z,62.664795
2018-09-19T21:22:08.928Z,63.189697
2018-09-19T21:23:08.919Z,63.189697
2018-09-19T21:24:08.966Z,63.189697
2018-09-19T21:25:08.954Z,62.963867
2018-09-19T21:26:09.002Z,62.860107
2018-09-19T21:27:09.091Z,62.762451
2018-09-19T21:28:09.245Z,62.963867
2018-09-19T21:29:09.509Z,62.762451
2018-09-19T21:30:09.418Z,62.994385
2018-09-19T21:31:09.402Z,62.762451
2018-09-19T21:32:09.491Z,62.561035
2018-09-19T21:33:09.818Z,62.561035
2018-09-19T21:34:09.600Z,62.463379
2018-09-19T21:35:09.678Z,62.463379
2018-09-19T21:36:09.660Z,62.365723
2018-09-19T21:37:09.757Z,62.261963
2018-09-19T21:38:09.873Z,62.261963
2018-09-19T21:40:24.477Z,62.463379
2018-09-19T21:41:24.553Z,62.695312
2018-09-19T21:42:24.696Z,62.463379
2018-09-19T21:43:24.853Z,62.261963
2018-09-19T21:44:25.032Z,62.463379
2018-09-19T21:45:25.032Z,62.561035
2018-09-19T21:46:25.052Z,62.261963
2018-09-19T21:47:25.130Z,62.695312
2018-09-19T21:48:25.234Z,63.189697
2018-09-19T21:49:25.213Z,63.525391
2018-09-19T21:50:25.244Z,63.720703
2018-09-19T21:51:25.353Z,64.025879
2018-09-19T21:52:25.463Z,63.922119
2018-09-19T21:53:25.465Z,63.623047
2018-09-19T21:54:25.618Z,63.189697
2018-09-19T22:08:38.848Z,63.189697
2018-09-19T22:08:54.836Z,63.85498
2018-09-19T22:09:54.826Z,63.85498
2018-09-19T22:10:55.122Z,63.720703
2018-09-19T22:11:55.030Z,63.623047
2018-09-19T22:12:55.185Z,63.720703
2018-09-19T22:13:55.199Z,63.720703
2018-09-19T22:14:55.483Z,63.85498
2018-09-19T22:15:55.390Z,63.85498
2018-09-19T22:16:55.495Z,63.85498
2018-09-19T22:17:55.574Z,64.483643
2018-09-19T22:18:55.567Z,64.782715
2018-09-19T22:19:55.600Z,64.782715
2018-09-19T22:20:55.849Z,64.483643
2018-09-19T22:21:55.938Z,64.355469
2018-09-19T22:22:56.018Z,64.251709
2018-09-19T22:23:56.121Z,63.85498
2018-09-19T22:24:56.116Z,63.623047
2018-09-19T22:25:57.136Z,63.525391
2018-09-19T22:26:56.295Z,63.653564
2018-09-19T22:27:57.417Z,63.952637
2018-09-19T22:28:56.456Z,64.056396
2018-09-19T22:29:56.566Z,63.952637
2018-09-19T22:30:56.618Z,63.751221
2018-09-19T22:31:56.757Z,63.952637
2018-09-19T22:32:56.751Z,63.85498
2018-09-19T22:33:56.843Z,63.85498
2018-09-19T22:34:56.935Z,63.555908
2018-09-19T22:35:56.878Z,63.421631
2018-09-19T22:36:56.921Z,63.751221
2018-09-19T22:37:56.972Z,63.952637
2018-09-19T22:38:57.209Z,63.751221
2018-09-19T22:39:57.211Z,63.555908
2018-09-19T22:40:57.277Z,63.85498
2018-09-19T22:41:57.343Z,63.751221
2018-09-19T22:42:57.421Z,63.555908
2018-09-19T22:43:57.400Z,63.354492
2018-09-19T22:44:57.584Z,63.555908
2018-09-19T22:45:57.701Z,63.452148
2018-09-19T22:46:57.636Z,63.250732
2018-09-19T22:47:57.764Z,63.983154
2018-09-19T22:48:57.753Z,64.18457
2018-09-19T22:49:57.870Z,64.282227
2018-09-19T22:50:57.826Z,64.18457
2018-09-19T22:51:57.846Z,64.18457
2018-09-19T22:52:58.027Z,64.282227
2018-09-19T22:53:58.001Z,64.086914
2018-09-19T22:54:58.182Z,64.086914
2018-09-19T22:55:58.154Z,63.781738
2018-09-19T22:56:58.332Z,63.555908
2018-09-19T22:57:58.314Z,63.452148
2018-09-19T22:58:58.426Z,63.38501
2018-09-19T22:59:58.475Z,63.452148
2018-09-19T23:00:58.443Z,63.354492
2018-09-19T23:01:58.524Z,63.482666
2018-09-19T23:02:58.528Z,63.684082
2018-09-19T23:03:58.664Z,63.885498
2018-09-19T23:04:58.645Z,63.684082
2018-09-19T23:05:58.619Z,63.580322
2018-09-19T23:06:58.696Z,63.684082
2018-09-19T23:07:59.702Z,64.013672
2018-09-19T23:08:58.812Z,63.7146
2018-09-19T23:09:58.837Z,64.117432
2018-09-19T23:10:59.903Z,64.343262
2018-09-19T23:11:59.013Z,64.215088
2018-09-19T23:12:59.174Z,63.916016
2018-09-19T23:13:59.233Z,64.343262
2018-09-19T23:14:59.351Z,64.147949
2018-09-19T23:15:59.435Z,64.013672
2018-09-19T23:16:59.585Z,64.343262
2018-09-19T23:17:59.579Z,64.245605
2018-09-19T23:18:59.587Z,64.447021
2018-09-19T23:19:59.673Z,64.544678
2018-09-19T23:20:59.700Z,64.447021
2018-09-19T23:21:59.772Z,64.147949
2018-09-19T23:22:59.841Z,63.916016
2018-09-19T23:24:00.040Z,64.343262
2018-09-19T23:24:59.936Z,64.678955
2018-09-19T23:25:59.982Z,64.776611
2018-09-19T23:27:00.067Z,64.447021
2018-09-19T23:28:00.108Z,64.343262
2018-09-19T23:29:00.134Z,64.776611
2018-09-19T23:30:00.184Z,64.776611
2018-09-19T23:31:00.265Z,64.343262
2018-09-19T23:32:01.457Z,64.343262
2018-09-19T23:33:00.510Z,64.343262
2018-09-19T23:34:00.537Z,64.575195
2018-09-19T23:35:00.621Z,64.678955
2018-09-19T23:36:01.687Z,64.477539
2018-09-19T23:37:00.864Z,65.209961
2018-09-19T23:38:00.838Z,65.612793
2018-09-19T23:39:01.109Z,65.307617
2018-09-19T23:40:01.015Z,65.008545
2018-09-19T23:41:01.023Z,65.179443
2018-09-19T23:42:01.988Z,64.575195
2018-09-19T23:43:01.183Z,64.678955
2018-09-19T23:44:01.215Z,64.373779
2018-09-19T23:45:01.239Z,64.147949
2018-09-19T23:46:01.437Z,64.477539
2018-09-19T23:47:01.589Z,64.477539
2018-09-19T23:48:01.640Z,64.807129
2018-09-19T23:49:01.698Z,64.776611